Terminal Aerodrome Forecast
Issued by NWS

Home | Current Version | Previous Version | Text Only | Print | Product List | Glossary On
Versions: 1 2 3 4 5 6 7 8 9 10 11 12 13 14
000
FTAK31 PAJN 282327
TAFAJN
TAF
PAJN 282327Z 2900/2924 11014G20KT 6SM -RA SCT025 OVC050
      WS020/15025KT
     FM290200 13016G21KT 5SM -RA BR BKN030 OVC040
     FM290500 12011KT P6SM -SHRA SCT020 OVC035
     FM291200 10008KT P6SM -SHRA SCT020 OVC050
     FM292100 14012KT P6SM -SHRA SCT020 OVC030=

USA.gov is the U.S. government's official web portal to all federal, state and local government web resources and services.